sensor_id;sensor_type;location;lat;lon;timestamp;temperature;humidity
30148;DHT22;16960;49.404;8.248;2022-11-25T00:01:22;20.40;43.30
30148;DHT22;16960;49.404;8.248;2022-11-25T00:03:49;20.40;43.40
30148;DHT22;16960;49.404;8.248;2022-11-25T00:06:18;20.40;43.30
30148;DHT22;16960;49.404;8.248;2022-11-25T00:08:46;20.40;43.30
30148;DHT22;16960;49.404;8.248;2022-11-25T00:11:17;20.40;43.30
30148;DHT22;16960;49.404;8.248;2022-11-25T00:13:46;20.40;43.30
30148;DHT22;16960;49.404;8.248;2022-11-25T00:16:15;20.40;43.30
30148;DHT22;16960;49.404;8.248;2022-11-25T00:18:45;20.40;43.30
30148;DHT22;16960;49.404;8.248;2022-11-25T00:21:13;20.40;43.30
30148;DHT22;16960;49.404;8.248;2022-11-25T00:23:40;20.40;43.30
30148;DHT22;16960;49.404;8.248;2022-11-25T00:26:09;20.40;43.30
30148;DHT22;16960;49.404;8.248;2022-11-25T00:28:38;20.40;43.30
30148;DHT22;16960;49.404;8.248;2022-11-25T00:31:07;20.30;43.30
30148;DHT22;16960;49.404;8.248;2022-11-25T00:33:34;20.30;43.30
30148;DHT22;16960;49.404;8.248;2022-11-25T00:36:01;20.40;43.30
30148;DHT22;16960;49.404;8.248;2022-11-25T00:38:28;20.30;43.30
30148;DHT22;16960;49.404;8.248;2022-11-25T00:40:55;20.30;43.20
30148;DHT22;16960;49.404;8.248;2022-11-25T00:43:37;20.30;43.20
30148;DHT22;16960;49.404;8.248;2022-11-25T00:46:22;20.30;43.30
30148;DHT22;16960;49.404;8.248;2022-11-25T00:48:49;20.30;43.20
30148;DHT22;16960;49.404;8.248;2022-11-25T00:51:16;20.30;43.20
30148;DHT22;16960;49.404;8.248;2022-11-25T00:53:43;20.30;43.20
30148;DHT22;16960;49.404;8.248;2022-11-25T00:56:10;20.30;43.20
30148;DHT22;16960;49.404;8.248;2022-11-25T00:58:42;20.30;43.20
30148;DHT22;16960;49.404;8.248;2022-11-25T01:01:10;20.30;43.90
30148;DHT22;16960;49.404;8.248;2022-11-25T01:03:37;20.30;43.20
30148;DHT22;16960;49.404;8.248;2022-11-25T01:06:06;20.30;43.20
30148;DHT22;16960;49.404;8.248;2022-11-25T01:08:35;20.30;43.20
30148;DHT22;16960;49.404;8.248;2022-11-25T01:11:04;20.30;43.20
30148;DHT22;16960;49.404;8.248;2022-11-25T01:13:31;20.30;43.20
30148;DHT22;16960;49.404;8.248;2022-11-25T01:16:01;20.30;43.10
30148;DHT22;16960;49.404;8.248;2022-11-25T01:18:29;20.30;43.10
30148;DHT22;16960;49.404;8.248;2022-11-25T01:21:04;20.40;43.00
30148;DHT22;16960;49.404;8.248;2022-11-25T01:23:31;20.30;43.00
30148;DHT22;16960;49.404;8.248;2022-11-25T01:26:00;20.40;43.00
30148;DHT22;16960;49.404;8.248;2022-11-25T01:28:27;20.40;43.00
30148;DHT22;16960;49.404;8.248;2022-11-25T01:31:00;20.30;43.00
30148;DHT22;16960;49.404;8.248;2022-11-25T01:33:27;20.30;43.00
30148;DHT22;16960;49.404;8.248;2022-11-25T01:35:59;20.30;43.00
30148;DHT22;16960;49.404;8.248;2022-11-25T01:38:26;20.30;43.00
30148;DHT22;16960;49.404;8.248;2022-11-25T01:40:53;20.30;43.00
30148;DHT22;16960;49.404;8.248;2022-11-25T01:43:20;20.30;42.90
30148;DHT22;16960;49.404;8.248;2022-11-25T01:45:47;20.30;42.90
30148;DHT22;16960;49.404;8.248;2022-11-25T01:48:19;20.30;42.90
30148;DHT22;16960;49.404;8.248;2022-11-25T01:50:48;20.30;42.90
30148;DHT22;16960;49.404;8.248;2022-11-25T01:53:15;20.30;42.80
30148;DHT22;16960;49.404;8.248;2022-11-25T01:55:47;20.30;42.90
30148;DHT22;16960;49.404;8.248;2022-11-25T01:58:18;20.30;42.90
30148;DHT22;16960;49.404;8.248;2022-11-25T02:00:46;20.30;42.90
30148;DHT22;16960;49.404;8.248;2022-11-25T02:03:19;20.30;42.90
30148;DHT22;16960;49.404;8.248;2022-11-25T02:05:51;20.30;42.80
30148;DHT22;16960;49.404;8.248;2022-11-25T02:08:22;20.30;42.80
30148;DHT22;16960;49.404;8.248;2022-11-25T02:10:50;20.30;42.80
30148;DHT22;16960;49.404;8.248;2022-11-25T02:13:18;20.30;42.80
30148;DHT22;16960;49.404;8.248;2022-11-25T02:15:46;20.20;42.80
30148;DHT22;16960;49.404;8.248;2022-11-25T02:18:13;20.20;42.80
30148;DHT22;16960;49.404;8.248;2022-11-25T02:20:41;20.20;42.80
30148;DHT22;16960;49.404;8.248;2022-11-25T02:23:13;20.20;42.90
30148;DHT22;16960;49.404;8.248;2022-11-25T02:25:43;20.20;42.90
30148;DHT22;16960;49.404;8.248;2022-11-25T02:28:13;20.20;42.90
30148;DHT22;16960;49.404;8.248;2022-11-25T02:30:42;20.20;42.90
30148;DHT22;16960;49.404;8.248;2022-11-25T02:33:09;20.20;43.00
30148;DHT22;16960;49.404;8.248;2022-11-25T02:35:38;20.20;43.00
30148;DHT22;16960;49.404;8.248;2022-11-25T02:38:08;20.20;43.00
30148;DHT22;16960;49.404;8.248;2022-11-25T02:40:43;20.20;43.00
30148;DHT22;16960;49.404;8.248;2022-11-25T02:43:12;20.20;43.00
30148;DHT22;16960;49.404;8.248;2022-11-25T02:45:50;20.20;43.00
30148;DHT22;16960;49.404;8.248;2022-11-25T02:48:18;20.20;43.00
30148;DHT22;16960;49.404;8.248;2022-11-25T02:50:46;20.20;43.00
30148;DHT22;16960;49.404;8.248;2022-11-25T02:53:14;20.20;43.00
30148;DHT22;16960;49.404;8.248;2022-11-25T02:55:42;20.20;43.00
30148;DHT22;16960;49.404;8.248;2022-11-25T02:58:09;20.20;43.00
30148;DHT22;16960;49.404;8.248;2022-11-25T03:00:36;20.20;43.00
30148;DHT22;16960;49.404;8.248;2022-11-25T03:03:03;20.20;43.00
30148;DHT22;16960;49.404;8.248;2022-11-25T03:05:30;20.20;43.00
30148;DHT22;16960;49.404;8.248;2022-11-25T03:07:57;20.20;43.00
30148;DHT22;16960;49.404;8.248;2022-11-25T03:10:24;20.20;42.90
30148;DHT22;16960;49.404;8.248;2022-11-25T03:12:52;20.20;42.90
30148;DHT22;16960;49.404;8.248;2022-11-25T03:15:20;20.20;42.90
30148;DHT22;16960;49.404;8.248;2022-11-25T03:17:47;20.20;42.90
30148;DHT22;16960;49.404;8.248;2022-11-25T03:20:14;20.20;42.90
30148;DHT22;16960;49.404;8.248;2022-11-25T03:22:42;20.20;43.00
30148;DHT22;16960;49.404;8.248;2022-11-25T03:25:10;20.10;42.90
30148;DHT22;16960;49.404;8.248;2022-11-25T03:27:38;20.20;43.00
30148;DHT22;16960;49.404;8.248;2022-11-25T03:30:08;20.20;42.90
30148;DHT22;16960;49.404;8.248;2022-11-25T03:32:36;20.10;42.90
30148;DHT22;16960;49.404;8.248;2022-11-25T03:35:03;20.10;42.90
30148;DHT22;16960;49.404;8.248;2022-11-25T03:37:31;20.10;42.90
30148;DHT22;16960;49.404;8.248;2022-11-25T03:39:57;20.10;42.90
30148;DHT22;16960;49.404;8.248;2022-11-25T03:42:24;20.10;42.90
30148;DHT22;16960;49.404;8.248;2022-11-25T03:44:51;20.10;42.90
30148;DHT22;16960;49.404;8.248;2022-11-25T03:47:19;20.10;42.90
30148;DHT22;16960;49.404;8.248;2022-11-25T03:49:46;20.10;42.90
30148;DHT22;16960;49.404;8.248;2022-11-25T03:52:13;20.10;42.90
30148;DHT22;16960;49.404;8.248;2022-11-25T03:54:40;20.10;42.90
30148;DHT22;16960;49.404;8.248;2022-11-25T03:57:07;20.10;42.90
30148;DHT22;16960;49.404;8.248;2022-11-25T03:59:34;20.10;42.90
30148;DHT22;16960;49.404;8.248;2022-11-25T04:02:01;20.10;42.90
30148;DHT22;16960;49.404;8.248;2022-11-25T04:04:30;20.10;42.90
30148;DHT22;16960;49.404;8.248;2022-11-25T04:06:57;20.10;42.90
30148;DHT22;16960;49.404;8.248;2022-11-25T04:09:24;20.10;42.80
30148;DHT22;16960;49.404;8.248;2022-11-25T04:11:51;20.10;42.90
30148;DHT22;16960;49.404;8.248;2022-11-25T04:14:35;20.00;42.70
30148;DHT22;16960;49.404;8.248;2022-11-25T04:17:02;20.10;42.80
30148;DHT22;16960;49.404;8.248;2022-11-25T04:19:30;20.10;42.80
30148;DHT22;16960;49.404;8.248;2022-11-25T04:21:57;20.10;42.80
30148;DHT22;16960;49.404;8.248;2022-11-25T04:24:26;20.10;42.80
30148;DHT22;16960;49.404;8.248;2022-11-25T04:26:53;20.10;42.80
30148;DHT22;16960;49.404;8.248;2022-11-25T04:29:20;20.10;42.80
30148;DHT22;16960;49.404;8.248;2022-11-25T04:31:47;20.10;42.90
30148;DHT22;16960;49.404;8.248;2022-11-25T04:34:14;20.00;42.70
30148;DHT22;16960;49.404;8.248;2022-11-25T04:36:42;20.10;42.80
30148;DHT22;16960;49.404;8.248;2022-11-25T04:39:10;20.10;42.80
30148;DHT22;16960;49.404;8.248;2022-11-25T04:41:36;20.10;42.80
30148;DHT22;16960;49.404;8.248;2022-11-25T04:44:04;20.10;42.80
30148;DHT22;16960;49.404;8.248;2022-11-25T04:46:34;20.10;42.80
30148;DHT22;16960;49.404;8.248;2022-11-25T04:49:02;20.10;42.70
30148;DHT22;16960;49.404;8.248;2022-11-25T04:51:29;20.10;42.80
30148;DHT22;16960;49.404;8.248;2022-11-25T04:53:57;20.10;42.70
30148;DHT22;16960;49.404;8.248;2022-11-25T04:56:24;20.10;42.70
30148;DHT22;16960;49.404;8.248;2022-11-25T04:58:51;20.10;42.70
30148;DHT22;16960;49.404;8.248;2022-11-25T05:01:36;20.10;42.70
30148;DHT22;16960;49.404;8.248;2022-11-25T05:04:03;20.10;42.70
30148;DHT22;16960;49.404;8.248;2022-11-25T05:06:30;20.10;42.80
30148;DHT22;16960;49.404;8.248;2022-11-25T05:08:58;20.10;42.80
30148;DHT22;16960;49.404;8.248;2022-11-25T05:11:25;20.10;42.70
30148;DHT22;16960;49.404;8.248;2022-11-25T05:13:52;20.10;42.70
30148;DHT22;16960;49.404;8.248;2022-11-25T05:16:19;20.10;42.70
30148;DHT22;16960;49.404;8.248;2022-11-25T05:18:46;20.10;42.70
30148;DHT22;16960;49.404;8.248;2022-11-25T05:21:13;20.10;42.70
30148;DHT22;16960;49.404;8.248;2022-11-25T05:23:40;20.10;42.70
30148;DHT22;16960;49.404;8.248;2022-11-25T05:26:08;20.10;42.70
30148;DHT22;16960;49.404;8.248;2022-11-25T05:28:35;20.10;42.70
30148;DHT22;16960;49.404;8.248;2022-11-25T05:31:02;20.10;42.60
30148;DHT22;16960;49.404;8.248;2022-11-25T05:33:29;20.10;42.60
30148;DHT22;16960;49.404;8.248;2022-11-25T05:35:58;20.10;42.60
30148;DHT22;16960;49.404;8.248;2022-11-25T05:38:25;20.10;42.60
30148;DHT22;16960;49.404;8.248;2022-11-25T05:40:53;20.10;42.60
30148;DHT22;16960;49.404;8.248;2022-11-25T05:43:26;20.10;42.70
30148;DHT22;16960;49.404;8.248;2022-11-25T05:45:53;20.20;42.60
30148;DHT22;16960;49.404;8.248;2022-11-25T05:48:20;20.20;42.60
30148;DHT22;16960;49.404;8.248;2022-11-25T05:50:47;20.20;42.60
30148;DHT22;16960;49.404;8.248;2022-11-25T05:53:14;20.20;42.60
30148;DHT22;16960;49.404;8.248;2022-11-25T05:55:42;20.30;42.70
30148;DHT22;16960;49.404;8.248;2022-11-25T05:58:09;20.30;42.60
30148;DHT22;16960;49.404;8.248;2022-11-25T06:00:37;20.30;42.60
30148;DHT22;16960;49.404;8.248;2022-11-25T06:03:04;20.30;42.60
30148;DHT22;16960;49.404;8.248;2022-11-25T06:05:33;20.40;42.50
30148;DHT22;16960;49.404;8.248;2022-11-25T06:08:00;20.40;42.50
30148;DHT22;16960;49.404;8.248;2022-11-25T06:10:27;20.40;42.40
30148;DHT22;16960;49.404;8.248;2022-11-25T06:12:54;20.40;42.40
30148;DHT22;16960;49.404;8.248;2022-11-25T06:15:21;20.40;42.40
30148;DHT22;16960;49.404;8.248;2022-11-25T06:17:49;20.50;42.40
30148;DHT22;16960;49.404;8.248;2022-11-25T06:20:16;20.50;42.40
30148;DHT22;16960;49.404;8.248;2022-11-25T06:22:43;20.50;42.40
30148;DHT22;16960;49.404;8.248;2022-11-25T06:25:10;20.50;42.40
30148;DHT22;16960;49.404;8.248;2022-11-25T06:27:37;20.50;42.30
30148;DHT22;16960;49.404;8.248;2022-11-25T06:30:06;20.50;42.30
30148;DHT22;16960;49.404;8.248;2022-11-25T06:32:33;20.50;42.20
30148;DHT22;16960;49.404;8.248;2022-11-25T06:35:02;20.60;42.50
30148;DHT22;16960;49.404;8.248;2022-11-25T06:37:30;20.60;42.50
30148;DHT22;16960;49.404;8.248;2022-11-25T06:39:57;20.60;42.40
30148;DHT22;16960;49.404;8.248;2022-11-25T06:42:24;20.60;42.20
30148;DHT22;16960;49.404;8.248;2022-11-25T06:44:51;20.60;42.00
30148;DHT22;16960;49.404;8.248;2022-11-25T06:47:18;20.60;41.90
30148;DHT22;16960;49.404;8.248;2022-11-25T06:49:45;20.70;41.90
30148;DHT22;16960;49.404;8.248;2022-11-25T06:52:13;20.70;41.90
30148;DHT22;16960;49.404;8.248;2022-11-25T06:54:40;20.70;41.70
30148;DHT22;16960;49.404;8.248;2022-11-25T06:57:07;20.70;41.60
30148;DHT22;16960;49.404;8.248;2022-11-25T06:59:35;20.70;41.60
30148;DHT22;16960;49.404;8.248;2022-11-25T07:02:03;20.70;41.60
30148;DHT22;16960;49.404;8.248;2022-11-25T07:04:30;20.70;41.50
30148;DHT22;16960;49.404;8.248;2022-11-25T07:06:57;20.70;41.50
30148;DHT22;16960;49.404;8.248;2022-11-25T07:09:25;20.70;41.80
30148;DHT22;16960;49.404;8.248;2022-11-25T07:11:52;20.70;41.40
30148;DHT22;16960;49.404;8.248;2022-11-25T07:14:19;20.80;41.40
30148;DHT22;16960;49.404;8.248;2022-11-25T07:16:46;20.80;41.30
30148;DHT22;16960;49.404;8.248;2022-11-25T07:19:16;20.80;41.30
30148;DHT22;16960;49.404;8.248;2022-11-25T07:21:43;20.80;41.10
30148;DHT22;16960;49.404;8.248;2022-11-25T07:24:12;20.80;41.40
30148;DHT22;16960;49.404;8.248;2022-11-25T07:26:41;20.80;41.10
30148;DHT22;16960;49.404;8.248;2022-11-25T07:29:10;20.90;41.20
30148;DHT22;16960;49.404;8.248;2022-11-25T07:31:39;20.90;41.10
30148;DHT22;16960;49.404;8.248;2022-11-25T07:34:08;20.90;41.00
30148;DHT22;16960;49.404;8.248;2022-11-25T07:36:36;20.90;41.00
30148;DHT22;16960;49.404;8.248;2022-11-25T07:39:05;21.00;40.90
30148;DHT22;16960;49.404;8.248;2022-11-25T07:41:32;21.00;40.90
30148;DHT22;16960;49.404;8.248;2022-11-25T07:44:02;21.10;40.80
30148;DHT22;16960;49.404;8.248;2022-11-25T07:46:30;21.10;40.70
30148;DHT22;16960;49.404;8.248;2022-11-25T07:49:00;21.10;40.70
30148;DHT22;16960;49.404;8.248;2022-11-25T07:51:29;21.10;40.70
30148;DHT22;16960;49.404;8.248;2022-11-25T07:53:57;21.20;40.60
30148;DHT22;16960;49.404;8.248;2022-11-25T07:56:25;21.10;40.40
30148;DHT22;16960;49.404;8.248;2022-11-25T07:58:52;21.20;40.40
30148;DHT22;16960;49.404;8.248;2022-11-25T08:01:21;21.20;40.20
30148;DHT22;16960;49.404;8.248;2022-11-25T08:03:49;21.20;40.10
30148;DHT22;16960;49.404;8.248;2022-11-25T08:06:18;21.20;40.00
30148;DHT22;16960;49.404;8.248;2022-11-25T08:08:45;21.30;40.00
30148;DHT22;16960;49.404;8.248;2022-11-25T08:11:14;21.30;40.10
30148;DHT22;16960;49.404;8.248;2022-11-25T08:13:42;21.30;39.90
30148;DHT22;16960;49.404;8.248;2022-11-25T08:16:10;21.30;39.90
30148;DHT22;16960;49.404;8.248;2022-11-25T08:18:39;21.40;39.80
30148;DHT22;16960;49.404;8.248;2022-11-25T08:21:09;21.40;39.80
30148;DHT22;16960;49.404;8.248;2022-11-25T08:23:37;21.30;39.70
30148;DHT22;16960;49.404;8.248;2022-11-25T08:26:05;21.30;39.60
30148;DHT22;16960;49.404;8.248;2022-11-25T08:28:33;21.40;39.50
30148;DHT22;16960;49.404;8.248;2022-11-25T08:31:03;21.40;39.50
30148;DHT22;16960;49.404;8.248;2022-11-25T08:33:31;21.40;39.50
30148;DHT22;16960;49.404;8.248;2022-11-25T08:35:59;21.40;39.50
30148;DHT22;16960;49.404;8.248;2022-11-25T08:38:26;21.40;39.60
30148;DHT22;16960;49.404;8.248;2022-11-25T08:40:54;21.40;39.50
30148;DHT22;16960;49.404;8.248;2022-11-25T08:43:21;21.40;39.80
30148;DHT22;16960;49.404;8.248;2022-11-25T08:45:48;21.40;39.60
30148;DHT22;16960;49.404;8.248;2022-11-25T08:48:16;21.40;39.60
30148;DHT22;16960;49.404;8.248;2022-11-25T08:50:47;21.30;39.60
30148;DHT22;16960;49.404;8.248;2022-11-25T08:53:16;21.40;39.40
30148;DHT22;16960;49.404;8.248;2022-11-25T08:55:43;21.40;39.30
30148;DHT22;16960;49.404;8.248;2022-11-25T08:58:10;21.40;39.30
30148;DHT22;16960;49.404;8.248;2022-11-25T09:00:38;21.30;39.20
30148;DHT22;16960;49.404;8.248;2022-11-25T09:03:05;21.30;38.90
30148;DHT22;16960;49.404;8.248;2022-11-25T09:05:32;21.40;39.00
30148;DHT22;16960;49.404;8.248;2022-11-25T09:08:01;21.30;38.80
30148;DHT22;16960;49.404;8.248;2022-11-25T09:10:30;21.40;38.70
30148;DHT22;16960;49.404;8.248;2022-11-25T09:12:57;21.30;38.60
30148;DHT22;16960;49.404;8.248;2022-11-25T09:15:25;21.40;38.40
30148;DHT22;16960;49.404;8.248;2022-11-25T09:17:57;21.40;38.40
30148;DHT22;16960;49.404;8.248;2022-11-25T09:20:24;21.40;38.30
30148;DHT22;16960;49.404;8.248;2022-11-25T09:22:51;21.40;38.30
30148;DHT22;16960;49.404;8.248;2022-11-25T09:25:19;21.40;38.20
30148;DHT22;16960;49.404;8.248;2022-11-25T09:27:47;21.50;38.40
30148;DHT22;16960;49.404;8.248;2022-11-25T09:30:14;21.40;38.20
30148;DHT22;16960;49.404;8.248;2022-11-25T09:32:41;21.40;38.20
30148;DHT22;16960;49.404;8.248;2022-11-25T09:35:08;21.50;38.40
30148;DHT22;16960;49.404;8.248;2022-11-25T09:37:36;21.40;38.10
30148;DHT22;16960;49.404;8.248;2022-11-25T09:40:05;21.40;38.20
30148;DHT22;16960;49.404;8.248;2022-11-25T09:42:42;21.40;38.20
30148;DHT22;16960;49.404;8.248;2022-11-25T09:45:35;21.40;38.20
30148;DHT22;16960;49.404;8.248;2022-11-25T09:48:32;21.40;38.10
30148;DHT22;16960;49.404;8.248;2022-11-25T09:51:09;21.30;38.10
30148;DHT22;16960;49.404;8.248;2022-11-25T09:53:42;21.20;38.10
30148;DHT22;16960;49.404;8.248;2022-11-25T09:56:18;21.20;38.10
30148;DHT22;16960;49.404;8.248;2022-11-25T09:58:52;21.20;38.20
30148;DHT22;16960;49.404;8.248;2022-11-25T10:01:24;21.20;38.10
30148;DHT22;16960;49.404;8.248;2022-11-25T10:03:55;21.20;38.20
30148;DHT22;16960;49.404;8.248;2022-11-25T10:06:26;21.20;38.10
30148;DHT22;16960;49.404;8.248;2022-11-25T10:08:56;21.20;38.20
30148;DHT22;16960;49.404;8.248;2022-11-25T10:11:31;21.30;38.10
30148;DHT22;16960;49.404;8.248;2022-11-25T10:14:04;21.30;38.10
30148;DHT22;16960;49.404;8.248;2022-11-25T10:16:41;21.30;38.00
30148;DHT22;16960;49.404;8.248;2022-11-25T10:19:22;21.40;38.00
30148;DHT22;16960;49.404;8.248;2022-11-25T10:21:50;21.30;38.00
30148;DHT22;16960;49.404;8.248;2022-11-25T10:24:18;21.30;38.00
30148;DHT22;16960;49.404;8.248;2022-11-25T10:26:52;21.30;38.10
30148;DHT22;16960;49.404;8.248;2022-11-25T10:29:25;21.30;38.20
30148;DHT22;16960;49.404;8.248;2022-11-25T10:32:02;21.30;38.20
30148;DHT22;16960;49.404;8.248;2022-11-25T10:34:35;21.30;38.20
30148;DHT22;16960;49.404;8.248;2022-11-25T10:37:20;21.30;38.20
30148;DHT22;16960;49.404;8.248;2022-11-25T10:39:48;21.30;38.40
30148;DHT22;16960;49.404;8.248;2022-11-25T10:42:19;21.30;38.40
30148;DHT22;16960;49.404;8.248;2022-11-25T10:44:47;21.30;38.60
30148;DHT22;16960;49.404;8.248;2022-11-25T10:47:34;21.40;38.50
30148;DHT22;16960;49.404;8.248;2022-11-25T10:50:15;21.30;38.50
30148;DHT22;16960;49.404;8.248;2022-11-25T10:52:49;21.30;38.70
30148;DHT22;16960;49.404;8.248;2022-11-25T10:55:18;21.40;38.70
30148;DHT22;16960;49.404;8.248;2022-11-25T10:57:46;21.40;38.90
30148;DHT22;16960;49.404;8.248;2022-11-25T11:00:28;21.40;38.70
30148;DHT22;16960;49.404;8.248;2022-11-25T11:02:58;21.30;38.80
30148;DHT22;16960;49.404;8.248;2022-11-25T11:05:28;21.40;38.90
30148;DHT22;16960;49.404;8.248;2022-11-25T11:08:12;21.40;38.90
30148;DHT22;16960;49.404;8.248;2022-11-25T11:10:40;21.40;38.80
30148;DHT22;16960;49.404;8.248;2022-11-25T11:13:21;21.40;38.90
30148;DHT22;16960;49.404;8.248;2022-11-25T11:15:50;21.40;38.90
30148;DHT22;16960;49.404;8.248;2022-11-25T11:18:25;21.40;39.00
30148;DHT22;16960;49.404;8.248;2022-11-25T11:20:53;21.40;39.10
30148;DHT22;16960;49.404;8.248;2022-11-25T11:23:21;21.40;39.00
30148;DHT22;16960;49.404;8.248;2022-11-25T11:25:57;21.40;39.00
30148;DHT22;16960;49.404;8.248;2022-11-25T11:28:28;21.30;39.10
30148;DHT22;16960;49.404;8.248;2022-11-25T11:31:00;21.30;39.10
30148;DHT22;16960;49.404;8.248;2022-11-25T11:33:33;21.40;39.20
30148;DHT22;16960;49.404;8.248;2022-11-25T11:36:14;21.30;39.20
30148;DHT22;16960;49.404;8.248;2022-11-25T11:38:52;21.40;39.20
30148;DHT22;16960;49.404;8.248;2022-11-25T11:41:29;21.40;39.20
30148;DHT22;16960;49.404;8.248;2022-11-25T11:44:15;21.40;39.20
30148;DHT22;16960;49.404;8.248;2022-11-25T11:47:00;21.40;39.20
30148;DHT22;16960;49.404;8.248;2022-11-25T11:50:03;21.40;39.20
30148;DHT22;16960;49.404;8.248;2022-11-25T11:52:49;21.40;39.20
30148;DHT22;16960;49.404;8.248;2022-11-25T11:55:33;21.40;39.20
30148;DHT22;16960;49.404;8.248;2022-11-25T11:58:08;21.50;39.30
30148;DHT22;16960;49.404;8.248;2022-11-25T12:00:44;21.50;39.30
30148;DHT22;16960;49.404;8.248;2022-11-25T12:03:16;21.50;39.40
30148;DHT22;16960;49.404;8.248;2022-11-25T12:05:47;21.50;39.40
30148;DHT22;16960;49.404;8.248;2022-11-25T12:08:25;21.40;39.30
30148;DHT22;16960;49.404;8.248;2022-11-25T12:10:56;21.50;39.50
30148;DHT22;16960;49.404;8.248;2022-11-25T12:13:28;21.40;39.30
30148;DHT22;16960;49.404;8.248;2022-11-25T12:16:04;21.50;39.50
30148;DHT22;16960;49.404;8.248;2022-11-25T12:18:40;21.50;39.50
30148;DHT22;16960;49.404;8.248;2022-11-25T12:21:21;21.50;39.70
30148;DHT22;16960;49.404;8.248;2022-11-25T12:23:57;21.50;39.60
30148;DHT22;16960;49.404;8.248;2022-11-25T12:26:32;21.50;39.60
30148;DHT22;16960;49.404;8.248;2022-11-25T12:29:06;21.50;39.70
30148;DHT22;16960;49.404;8.248;2022-11-25T12:31:38;21.60;39.60
30148;DHT22;16960;49.404;8.248;2022-11-25T12:34:10;21.60;39.60
30148;DHT22;16960;49.404;8.248;2022-11-25T12:36:40;21.60;39.60
30148;DHT22;16960;49.404;8.248;2022-11-25T12:39:17;21.70;39.60
30148;DHT22;16960;49.404;8.248;2022-11-25T12:41:50;21.70;39.60
30148;DHT22;16960;49.404;8.248;2022-11-25T12:44:22;21.70;39.80
30148;DHT22;16960;49.404;8.248;2022-11-25T12:46:52;21.70;39.90
30148;DHT22;16960;49.404;8.248;2022-11-25T12:49:22;21.70;39.90
30148;DHT22;16960;49.404;8.248;2022-11-25T12:55:11;21.70;39.80
30148;DHT22;16960;49.404;8.248;2022-11-25T13:01:11;21.80;39.80
30148;DHT22;16960;49.404;8.248;2022-11-25T13:03:59;21.80;39.80
30148;DHT22;16960;49.404;8.248;2022-11-25T13:06:44;21.80;39.70
30148;DHT22;16960;49.404;8.248;2022-11-25T13:09:26;21.90;39.70
30148;DHT22;16960;49.404;8.248;2022-11-25T13:12:25;21.90;39.80
30148;DHT22;16960;49.404;8.248;2022-11-25T13:15:26;21.80;39.80
30148;DHT22;16960;49.404;8.248;2022-11-25T13:17:57;21.80;39.70
30148;DHT22;16960;49.404;8.248;2022-11-25T13:20:43;21.80;39.90
30148;DHT22;16960;49.404;8.248;2022-11-25T13:23:31;21.80;39.90
30148;DHT22;16960;49.404;8.248;2022-11-25T13:26:45;21.90;39.90
30148;DHT22;16960;49.404;8.248;2022-11-25T13:32:38;21.80;40.10
30148;DHT22;16960;49.404;8.248;2022-11-25T13:35:36;21.80;40.00
30148;DHT22;16960;49.404;8.248;2022-11-25T13:40:56;21.70;40.10
30148;DHT22;16960;49.404;8.248;2022-11-25T13:43:23;21.70;41.10
30148;DHT22;16960;49.404;8.248;2022-11-25T13:45:50;21.60;40.30
30148;DHT22;16960;49.404;8.248;2022-11-25T13:48:20;21.60;40.30
30148;DHT22;16960;49.404;8.248;2022-11-25T13:50:49;21.60;40.30
30148;DHT22;16960;49.404;8.248;2022-11-25T13:53:22;21.50;40.30
30148;DHT22;16960;49.404;8.248;2022-11-25T13:55:50;21.50;40.40
30148;DHT22;16960;49.404;8.248;2022-11-25T13:58:22;21.50;40.40
30148;DHT22;16960;49.404;8.248;2022-11-25T14:01:10;21.50;40.40
30148;DHT22;16960;49.404;8.248;2022-11-25T14:03:50;21.50;40.50
30148;DHT22;16960;49.404;8.248;2022-11-25T14:06:52;21.40;40.40
30148;DHT22;16960;49.404;8.248;2022-11-25T14:09:32;21.40;40.40
30148;DHT22;16960;49.404;8.248;2022-11-25T14:15:18;21.40;40.50
30148;DHT22;16960;49.404;8.248;2022-11-25T14:20:53;21.40;40.60
30148;DHT22;16960;49.404;8.248;2022-11-25T14:26:32;21.30;40.60
30148;DHT22;16960;49.404;8.248;2022-11-25T14:29:02;21.30;40.70
30148;DHT22;16960;49.404;8.248;2022-11-25T14:31:35;21.40;40.70
30148;DHT22;16960;49.404;8.248;2022-11-25T14:34:09;21.30;40.70
30148;DHT22;16960;49.404;8.248;2022-11-25T14:36:42;21.30;40.70
30148;DHT22;16960;49.404;8.248;2022-11-25T14:39:16;21.30;40.80
30148;DHT22;16960;49.404;8.248;2022-11-25T14:41:48;21.30;40.80
30148;DHT22;16960;49.404;8.248;2022-11-25T14:44:21;21.20;40.70
30148;DHT22;16960;49.404;8.248;2022-11-25T14:46:50;21.30;40.90
30148;DHT22;16960;49.404;8.248;2022-11-25T14:49:17;21.20;40.80
30148;DHT22;16960;49.404;8.248;2022-11-25T14:51:48;21.20;40.80
30148;DHT22;16960;49.404;8.248;2022-11-25T14:54:16;21.20;41.00
30148;DHT22;16960;49.404;8.248;2022-11-25T14:56:44;21.20;41.00
30148;DHT22;16960;49.404;8.248;2022-11-25T14:59:12;21.20;41.00
30148;DHT22;16960;49.404;8.248;2022-11-25T15:01:50;21.20;41.00
30148;DHT22;16960;49.404;8.248;2022-11-25T15:04:19;21.10;41.00
30148;DHT22;16960;49.404;8.248;2022-11-25T15:06:50;21.10;41.10
30148;DHT22;16960;49.404;8.248;2022-11-25T15:09:20;21.10;41.20
30148;DHT22;16960;49.404;8.248;2022-11-25T15:11:54;21.10;41.20
30148;DHT22;16960;49.404;8.248;2022-11-25T15:14:24;21.00;41.20
30148;DHT22;16960;49.404;8.248;2022-11-25T15:16:52;21.00;41.20
30148;DHT22;16960;49.404;8.248;2022-11-25T15:19:21;21.00;41.30
30148;DHT22;16960;49.404;8.248;2022-11-25T15:21:56;21.00;41.30
30148;DHT22;16960;49.404;8.248;2022-11-25T15:24:25;21.00;41.30
30148;DHT22;16960;49.404;8.248;2022-11-25T15:26:55;20.90;41.30
30148;DHT22;16960;49.404;8.248;2022-11-25T15:29:23;20.90;41.40
30148;DHT22;16960;49.404;8.248;2022-11-25T15:31:51;20.90;41.40
30148;DHT22;16960;49.404;8.248;2022-11-25T15:34:20;20.90;41.50
30148;DHT22;16960;49.404;8.248;2022-11-25T15:36:48;20.90;41.50
30148;DHT22;16960;49.404;8.248;2022-11-25T15:39:24;20.90;41.50
30148;DHT22;16960;49.404;8.248;2022-11-25T15:41:54;20.90;41.60
30148;DHT22;16960;49.404;8.248;2022-11-25T15:44:24;20.90;41.60
30148;DHT22;16960;49.404;8.248;2022-11-25T15:46:56;20.90;41.60
30148;DHT22;16960;49.404;8.248;2022-11-25T15:49:23;20.90;41.70
30148;DHT22;16960;49.404;8.248;2022-11-25T15:51:53;20.90;41.80
30148;DHT22;16960;49.404;8.248;2022-11-25T15:54:24;20.90;41.80
30148;DHT22;16960;49.404;8.248;2022-11-25T15:56:55;20.80;41.80
30148;DHT22;16960;49.404;8.248;2022-11-25T15:59:41;20.90;41.90
30148;DHT22;16960;49.404;8.248;2022-11-25T16:02:33;20.90;42.00
30148;DHT22;16960;49.404;8.248;2022-11-25T16:05:31;20.80;42.20
30148;DHT22;16960;49.404;8.248;2022-11-25T16:08:01;20.90;42.90
30148;DHT22;16960;49.404;8.248;2022-11-25T16:10:32;20.90;42.20
30148;DHT22;16960;49.404;8.248;2022-11-25T16:13:16;20.90;42.30
30148;DHT22;16960;49.404;8.248;2022-11-25T16:15:44;20.90;42.20